Tuesday, August 21, 2018, 9:53 AM EDT
Back to Local

KDDH, Bennington Morse State Airport

Location: Bennington, VT, United States Lat: 42.883
Local Time: 9:53 AM EDT (13:53 GMT) Lon: -73.25
Time Zone: US/Eastern Elev: 826 ft

Show me the last for .
Show Decoded

2018-08-21 08:54 METAR KDDH 211254Z AUTO VRB05KT 10SM BKN046 21/13 A3011 RMK AO2 SLP194 T02110128
                 =
2018-08-21 07:54 METAR KDDH 211154Z AUTO 09007KT 10SM SCT050 OVC060 18/13 A3013 RMK AO2 SLP200
                 T01780128 10178 20133 50002 =
2018-08-21 06:54 METAR KDDH 211054Z AUTO 00000KT 10SM OVC050 17/13 A3015 RMK AO2 SLP205 T01670133
                 =
2018-08-21 05:54 METAR KDDH 210954Z AUTO 09004KT 10SM OVC060 17/12 A3014 RMK AO2 SLP202 T01670122
                 =
2018-08-21 04:54 METAR KDDH 210854Z AUTO 00000KT 10SM OVC060 15/13 A3013 RMK AO2 SLP198 T01500133
                 56011 =
2018-08-21 03:54 METAR KDDH 210754Z AUTO 00000KT 10SM CLR 14/12 A3013 RMK AO2 SLP200 T01440122 =
2018-08-21 02:54 METAR KDDH 210654Z AUTO 09004KT 10SM CLR 16/13 A3014 RMK AO2 SLP201 T01610133 =
2018-08-21 00:54 METAR KDDH 210454Z AUTO 09005KT 10SM CLR 17/14 A3017 RMK AO2 SLP212 T01670144
                 402610122 TSNO =
2018-08-20 23:54 METAR KDDH 210354Z AUTO 08004KT 10SM BKN055 18/14 A3017 RMK AO2 SLP213 T01780144
                 =
2018-08-20 22:54 METAR KDDH 210254Z AUTO 10005KT 10SM CLR 18/14 A3018 RMK AO2 SLP215 T01780144
                 51012 =
2018-08-20 21:54 METAR KDDH 210154Z AUTO VRB04KT 10SM CLR 17/14 A3017 RMK AO2 SLP213 T01670144 =
2018-08-20 20:54 METAR KDDH 210054Z AUTO 00000KT 10SM CLR 18/14 A3015 RMK AO2 SLP207 T01830144 =
2018-08-20 19:54 METAR KDDH 202354Z AUTO 10005KT 10SM OVC060 20/15 A3014 RMK AO2 SLP203 T02000150
                 10261 20194 53003 =
2018-08-20 18:54 METAR KDDH 202254Z AUTO 13004KT 10SM BKN060 22/15 A3014 RMK AO2 SLP202 T02170150
                 =
2018-08-20 17:54 METAR KDDH 202154Z AUTO 13004KT 10SM OVC060 23/15 A3013 RMK AO2 SLP201 T02330150
                 =
2018-08-20 16:54 METAR KDDH 202054Z AUTO 15007KT 10SM FEW065 26/15 A3013 RMK AO2 SLP200 T02560150
                 58007 =
2018-08-20 15:54 METAR KDDH 201954Z AUTO 21004KT 10SM OVC060 24/16 A3015 RMK AO2 SLP205 T02440156
                 =
2018-08-20 14:54 METAR KDDH 201854Z AUTO 36003KT 10SM BKN050 OVC060 24/15 A3015 RMK AO2 SLP207
                 T02440150 =
2018-08-20 13:54 METAR KDDH 201754Z AUTO 00000KT 10SM SCT055 26/15 A3015 RMK AO2 SLP206 T02560150
                 10261 20178 56016 =
2018-08-20 12:54 METAR KDDH 201654Z AUTO 00000KT 10SM FEW045 BKN055 24/15 A3017 RMK AO2 SLP211
                 T02440150 =
2018-08-20 11:54 METAR KDDH 201554Z AUTO 00000KT 10SM BKN050 24/15 A3018 RMK AO2 SLP216 T02390150
                 =
2018-08-20 10:54 METAR KDDH 201454Z AUTO VRB03KT 10SM SCT035 23/14 A3020 RMK AO2 SLP222 T02280144
                 50004 =
2018-08-20 09:54 METAR KDDH 201354Z AUTO 12006KT 10SM CLR 23/15 A3020 RMK AO2 SLP223 T02280150 =

Support USWX by starting your Amazon purchase here.